Strona główna
METAR-TAF:

METAR-TAF

Lotnisko :

Millinocket Municipal Airport

Millinocket, Maine, Stany Zjednoczone

Szerokość geograficzna: 45-38-52N, Długość geograficzna: 068-41-31W, wysokość: 124 m

Aktualna obserwacja pogody

Raport powstał 36 minut temu, godzina 01:53 UTC
Cisza
Temperatura -2°C
Wilgotność 69%
Ciśnienie 1015 hPa
Widzialność: 16.1 km
Zachmurzenie całkowite na wysokości 5000 ft

METAR: KMLT 170153Z AUTO 00000KT 10SM OVC050 M02/M07 A2998 RMK AO2 SLP164 T10221072

czas: 21:29 (02:29 UTC)


TAF: brakujący

Obserwacja i prognoza pogody dla ponad 4000 lotnisk (raport METAR i TAF).

Dostępne stacje oznaczono żółtymi i czerwonymi punktami na mapie.

Najedź kursorem aby zobaczyć nazwę stacji.

Kliknij aby zobaczyć obserwacje i prognozy pogody.

Aby zmienić mapę: kliknij na zielony przycisk z czarnym krzyżykiem, aby powiększyć; na zielony przycisk z myślnikiem, aby pomniejszyć; na zielone strzałki, aby przejść do map sąsiednich.


METAR-TAF: